Time;durP1;ratioP1;P1;durP2;ratioP2;P2;SDS_P1;SDS_P2;PMS_P1;PMS_P2;Temp;Humidity;BMP_temperature;BMP_pressure;BME280_temperature;BME280_humidity;BME280_pressure;Samples;Min_cycle;Max_cycle;Signal;HPM_P1;HPM_P2
2023/11/17 00:00:50;;;;;;;220.05;52.03;;;;;;;;;;5020805;28;20654;-44
2023/11/17 00:03:16;;;;;;;221.57;53.00;;;;;;;;;;5021798;28;20241;-43
2023/11/17 00:05:42;;;;;;;226.03;55.10;;;;;;;;;;5024461;28;20719;-44
2023/11/17 00:08:08;;;;;;;223.15;52.92;;;;;;;;;;5020088;28;20413;-44
2023/11/17 00:10:34;;;;;;;223.82;53.90;;;;;;;;;;5022552;28;20183;-44
2023/11/17 00:13:00;;;;;;;222.80;52.30;;;;;;;;;;5020652;28;20256;-43
2023/11/17 00:15:28;;;;;;;229.63;58.67;;;;;;;;;;5021569;28;20592;-44
2023/11/17 00:17:54;;;;;;;221.68;52.15;;;;;;;;;;5019538;28;20574;-44
2023/11/17 00:20:20;;;;;;;220.57;50.87;;;;;;;;;;5021046;28;20181;-45
2023/11/17 00:22:48;;;;;;;219.67;50.23;;;;;;;;;;5021821;28;21100;-44
2023/11/17 00:25:16;;;;;;;220.45;51.20;;;;;;;;;;5018699;28;20411;-44
2023/11/17 00:27:42;;;;;;;222.45;51.83;;;;;;;;;;5019258;28;20199;-43
2023/11/17 00:30:08;;;;;;;222.60;52.33;;;;;;;;;;5020619;28;20192;-44
2023/11/17 00:32:34;;;;;;;222.73;52.67;;;;;;;;;;5020204;28;20182;-44
2023/11/17 00:35:00;;;;;;;222.10;51.50;;;;;;;;;;5020267;28;20198;-44
2023/11/17 00:37:26;;;;;;;224.60;54.08;;;;;;;;;;5024488;28;20974;-44
2023/11/17 00:39:55;;;;;;;220.77;51.60;;;;;;;;;;5022472;28;20263;-43
2023/11/17 00:42:21;;;;;;;222.98;52.42;;;;;;;;;;5017418;28;20410;-44
2023/11/17 00:44:47;;;;;;;222.33;51.93;;;;;;;;;;5017033;28;20259;-44
2023/11/17 00:47:15;;;;;;;220.83;51.73;;;;;;;;;;5021433;28;20450;-44
2023/11/17 00:49:42;;;;;;;222.50;51.70;;;;;;;;;;5022735;28;20476;-44
2023/11/17 00:52:08;;;;;;;220.25;50.58;;;;;;;;;;5021276;28;20202;-44
2023/11/17 00:54:42;;;;;;;222.93;52.03;;;;;;;;;;5022006;28;20207;-44
2023/11/17 00:57:09;;;;;;;221.60;52.08;;;;;;;;;;5021297;28;20316;-44
2023/11/17 00:59:36;;;;;;;221.85;51.85;;;;;;;;;;5016847;28;20654;-43
2023/11/17 01:02:04;;;;;;;222.17;52.27;;;;;;;;;;5022912;28;20184;-44
2023/11/17 01:04:30;;;;;;;222.68;51.58;;;;;;;;;;5021592;28;20398;-44
2023/11/17 01:06:56;;;;;;;219.03;49.93;;;;;;;;;;5018759;28;20692;-44
2023/11/17 01:09:22;;;;;;;222.48;51.63;;;;;;;;;;5021461;28;20399;-44
2023/11/17 01:11:48;;;;;;;220.85;51.40;;;;;;;;;;5019848;28;20233;-45
2023/11/17 01:14:15;;;;;;;220.75;51.97;;;;;;;;;;5019916;28;20438;-44
2023/11/17 01:16:41;;;;;;;221.10;51.17;;;;;;;;;;5019401;28;20226;-43
2023/11/17 01:19:07;;;;;;;221.13;51.72;;;;;;;;;;5024702;28;20169;-44
2023/11/17 01:21:32;;;;;;;220.17;51.00;;;;;;;;;;5020615;28;20176;-44
2023/11/17 01:24:02;;;;;;;222.53;51.80;;;;;;;;;;5023980;28;20407;-44
2023/11/17 01:26:28;;;;;;;221.48;51.55;;;;;;;;;;5016277;28;20809;-43
2023/11/17 01:28:55;;;;;;;222.00;50.60;;;;;;;;;;5023368;28;20188;-43
2023/11/17 01:31:21;;;;;;;222.30;51.70;;;;;;;;;;5026495;28;20600;-44
2023/11/17 01:33:48;;;;;;;223.10;52.65;;;;;;;;;;5025646;28;20295;-44
2023/11/17 01:36:14;;;;;;;222.43;51.17;;;;;;;;;;5026646;28;20612;-43
2023/11/17 01:38:40;;;;;;;222.50;52.15;;;;;;;;;;5022806;28;20628;-43
2023/11/17 01:41:06;;;;;;;220.18;51.03;;;;;;;;;;5018951;28;20219;-44
2023/11/17 01:43:32;;;;;;;219.63;51.70;;;;;;;;;;5026732;28;20222;-43
2023/11/17 01:45:58;;;;;;;219.45;50.72;;;;;;;;;;5023608;28;20518;-44
2023/11/17 01:48:24;;;;;;;223.43;52.83;;;;;;;;;;5023298;28;20307;-44
2023/11/17 01:50:52;;;;;;;220.43;51.30;;;;;;;;;;5023324;28;20742;-44
2023/11/17 01:53:18;;;;;;;220.48;52.08;;;;;;;;;;5025012;28;20172;-44
2023/11/17 01:55:45;;;;;;;222.98;53.13;;;;;;;;;;5021332;28;20225;-43
2023/11/17 01:58:12;;;;;;;222.20;52.30;;;;;;;;;;5024716;28;20715;-43
2023/11/17 02:00:38;;;;;;;219.68;50.80;;;;;;;;;;5025290;28;20221;-43
2023/11/17 02:03:05;;;;;;;219.38;50.53;;;;;;;;;;5026125;28;20790;-44
2023/11/17 02:05:32;;;;;;;224.32;54.15;;;;;;;;;;5023445;28;20526;-43
2023/11/17 02:08:07;;;;;;;223.23;53.15;;;;;;;;;;5022487;28;20820;-44
2023/11/17 02:10:36;;;;;;;218.88;50.63;;;;;;;;;;5016021;28;20528;-44
2023/11/17 02:13:14;;;;;;;221.00;52.13;;;;;;;;;;5023169;28;20250;-44
2023/11/17 02:15:41;;;;;;;224.95;53.63;;;;;;;;;;5007780;28;20216;-44
2023/11/17 02:18:12;;;;;;;219.75;51.70;;;;;;;;;;5026719;28;20196;-44
2023/11/17 02:20:38;;;;;;;219.20;50.75;;;;;;;;;;5021717;28;20666;-44
2023/11/17 02:23:15;;;;;;;220.40;52.20;;;;;;;;;;5018105;28;20172;-44
2023/11/17 02:25:59;;;;;;;223.05;53.53;;;;;;;;;;5025590;28;20221;-44
2023/11/17 02:28:35;;;;;;;220.05;51.30;;;;;;;;;;5015057;28;20237;-44
2023/11/17 02:31:25;;;;;;;220.88;52.50;;;;;;;;;;5021055;28;20211;-44
2023/11/17 02:33:51;;;;;;;220.80;52.47;;;;;;;;;;5020979;28;20180;-44
2023/11/17 02:36:19;;;;;;;221.88;52.15;;;;;;;;;;5022350;28;20208;-44
2023/11/17 02:38:56;;;;;;;218.90;50.00;;;;;;;;;;5022376;28;20556;-44
2023/11/17 02:41:29;;;;;;;221.90;53.03;;;;;;;;;;5025083;28;20180;-44
2023/11/17 02:43:57;;;;;;;219.77;50.92;;;;;;;;;;5023687;28;20208;-43
2023/11/17 02:46:24;;;;;;;221.35;51.72;;;;;;;;;;5025517;28;20203;-44
2023/11/17 02:48:51;;;;;;;220.07;52.75;;;;;;;;;;5023150;28;20167;-45
2023/11/17 02:51:22;;;;;;;217.82;50.97;;;;;;;;;;5017682;28;20173;-45
2023/11/17 02:53:49;;;;;;;220.02;51.58;;;;;;;;;;5025401;28;20280;-45
2023/11/17 02:56:19;;;;;;;220.07;51.53;;;;;;;;;;5022206;28;20208;-45
2023/11/17 02:58:54;;;;;;;220.18;51.67;;;;;;;;;;5021447;28;20179;-45
2023/11/17 03:01:20;;;;;;;219.98;51.58;;;;;;;;;;5025921;28;20183;-45
2023/11/17 03:03:49;;;;;;;218.20;51.47;;;;;;;;;;5023066;28;20180;-45
2023/11/17 03:06:15;;;;;;;219.20;53.28;;;;;;;;;;5024221;28;20199;-44
2023/11/17 03:08:41;;;;;;;219.37;52.80;;;;;;;;;;5028802;28;20188;-45
2023/11/17 03:11:07;;;;;;;219.70;52.65;;;;;;;;;;5013809;28;20399;-45
2023/11/17 03:13:33;;;;;;;218.65;51.40;;;;;;;;;;5033541;28;20167;-44
2023/11/17 03:15:59;;;;;;;219.48;51.70;;;;;;;;;;5016802;28;20200;-44
2023/11/17 03:18:30;;;;;;;225.90;56.80;;;;;;;;;;5021554;28;20667;-44
2023/11/17 03:20:57;;;;;;;218.88;52.78;;;;;;;;;;5017902;28;20164;-48
2023/11/17 03:23:23;;;;;;;220.02;53.08;;;;;;;;;;5029657;28;20168;-44
2023/11/17 03:25:52;;;;;;;220.13;53.00;;;;;;;;;;5022750;28;20219;-45
2023/11/17 03:28:19;;;;;;;218.85;52.90;;;;;;;;;;5023780;28;20176;-44
2023/11/17 03:30:45;;;;;;;217.50;52.60;;;;;;;;;;5032198;28;20191;-44
2023/11/17 03:33:11;;;;;;;220.17;53.03;;;;;;;;;;5024622;28;20180;-45
2023/11/17 03:35:40;;;;;;;224.88;56.75;;;;;;;;;;5024315;28;20700;-44
2023/11/17 03:38:06;;;;;;;220.15;52.50;;;;;;;;;;5028893;28;20695;-45
2023/11/17 03:40:36;;;;;;;219.40;52.55;;;;;;;;;;5024555;28;20176;-43
2023/11/17 03:43:01;;;;;;;218.75;52.40;;;;;;;;;;5024203;28;20176;-44
2023/11/17 03:45:27;;;;;;;219.57;52.47;;;;;;;;;;5028352;28;20536;-44
2023/11/17 03:47:54;;;;;;;216.20;50.13;;;;;;;;;;5028317;28;20415;-45
2023/11/17 03:50:20;;;;;;;221.77;52.50;;;;;;;;;;5017739;28;20180;-45
2023/11/17 03:52:46;;;;;;;221.48;52.55;;;;;;;;;;5018112;28;20172;-44
2023/11/17 03:55:12;;;;;;;221.03;52.20;;;;;;;;;;5024154;28;20184;-44
2023/11/17 03:57:38;;;;;;;218.47;51.37;;;;;;;;;;5023903;28;20454;-45
2023/11/17 04:00:05;;;;;;;220.43;51.88;;;;;;;;;;5024632;28;20401;-45
2023/11/17 04:02:32;;;;;;;221.00;54.13;;;;;;;;;;5027941;28;20536;-44
2023/11/17 04:04:58;;;;;;;220.73;53.00;;;;;;;;;;5028497;28;20207;-44
2023/11/17 04:07:23;;;;;;;219.97;52.67;;;;;;;;;;5023401;28;20231;-45
2023/11/17 04:09:50;;;;;;;219.97;52.17;;;;;;;;;;5024075;28;20416;-45
2023/11/17 04:12:16;;;;;;;218.93;52.15;;;;;;;;;;5023876;28;20790;-44
2023/11/17 04:14:42;;;;;;;220.48;53.13;;;;;;;;;;5024110;28;20184;-44
2023/11/17 04:17:10;;;;;;;220.02;53.55;;;;;;;;;;5023919;28;20653;-45
2023/11/17 04:19:36;;;;;;;220.10;52.67;;;;;;;;;;5026959;28;20533;-45
2023/11/17 04:22:02;;;;;;;218.70;52.20;;;;;;;;;;5024378;28;20177;-45
2023/11/17 04:24:29;;;;;;;221.52;53.83;;;;;;;;;;5012919;28;20530;-44
2023/11/17 04:26:56;;;;;;;219.77;53.25;;;;;;;;;;5030759;28;20203;-45
2023/11/17 04:29:25;;;;;;;219.38;52.03;;;;;;;;;;5028181;28;20190;-44
2023/11/17 04:31:50;;;;;;;219.60;51.95;;;;;;;;;;5031140;28;20673;-45
2023/11/17 04:34:16;;;;;;;216.27;50.30;;;;;;;;;;5022289;28;20216;-44
2023/11/17 04:36:44;;;;;;;219.30;51.80;;;;;;;;;;5007165;28;20463;-44
2023/11/17 04:39:17;;;;;;;221.65;52.78;;;;;;;;;;4993183;28;20525;-45
2023/11/17 04:41:43;;;;;;;218.05;51.63;;;;;;;;;;5012244;28;20507;-45
2023/11/17 04:44:09;;;;;;;216.40;50.38;;;;;;;;;;4994740;28;20196;-44
2023/11/17 04:46:35;;;;;;;220.93;52.70;;;;;;;;;;5005081;28;20200;-44
2023/11/17 04:49:01;;;;;;;219.10;51.80;;;;;;;;;;5002634;28;20231;-44
2023/11/17 04:51:27;;;;;;;219.43;52.10;;;;;;;;;;4997531;28;20419;-44
2023/11/17 04:53:53;;;;;;;218.97;51.80;;;;;;;;;;5010948;28;20414;-44
2023/11/17 04:56:19;;;;;;;219.18;51.05;;;;;;;;;;4991798;28;20516;-44
2023/11/17 04:58:45;;;;;;;216.65;50.30;;;;;;;;;;5008945;28;20250;-45
2023/11/17 05:01:14;;;;;;;219.30;51.45;;;;;;;;;;4998925;28;20538;-45
2023/11/17 05:03:41;;;;;;;222.63;52.78;;;;;;;;;;5001242;28;20224;-44
2023/11/17 05:06:07;;;;;;;219.32;51.47;;;;;;;;;;5006408;28;20208;-44
2023/11/17 05:08:33;;;;;;;222.38;52.17;;;;;;;;;;4992924;28;20176;-44
2023/11/17 05:10:59;;;;;;;220.23;51.25;;;;;;;;;;5011881;28;20255;-45
2023/11/17 05:13:25;;;;;;;218.82;50.67;;;;;;;;;;4994866;28;20560;-44
2023/11/17 05:15:51;;;;;;;219.98;51.05;;;;;;;;;;5004614;28;20204;-44
2023/11/17 05:18:17;;;;;;;220.63;51.72;;;;;;;;;;5002993;28;20209;-44
2023/11/17 05:20:43;;;;;;;217.93;50.28;;;;;;;;;;4996730;28;20177;-45
2023/11/17 05:23:12;;;;;;;218.07;51.20;;;;;;;;;;5011131;28;20168;-45
2023/11/17 05:25:40;;;;;;;221.77;53.63;;;;;;;;;;5011455;28;20438;-45
2023/11/17 05:28:08;;;;;;;219.13;51.40;;;;;;;;;;4994795;28;20586;-44
2023/11/17 05:30:34;;;;;;;218.35;51.28;;;;;;;;;;4987505;28;20188;-44
2023/11/17 05:33:00;;;;;;;217.77;50.70;;;;;;;;;;5002573;28;20284;-44
2023/11/17 05:35:26;;;;;;;219.43;51.15;;;;;;;;;;4996682;28;20212;-44
2023/11/17 05:37:52;;;;;;;217.33;50.53;;;;;;;;;;5010445;28;20687;-44
2023/11/17 05:40:18;;;;;;;218.33;50.97;;;;;;;;;;4991908;28;20411;-44
2023/11/17 05:42:44;;;;;;;219.32;51.30;;;;;;;;;;5008439;28;20418;-44
2023/11/17 05:45:14;;;;;;;218.07;51.17;;;;;;;;;;4998898;28;20178;-44
2023/11/17 05:47:41;;;;;;;221.10;52.28;;;;;;;;;;5000592;28;20192;-44
2023/11/17 05:50:11;;;;;;;220.00;52.05;;;;;;;;;;5006423;28;20176;-44
2023/11/17 05:52:37;;;;;;;221.98;52.67;;;;;;;;;;4993274;28;20176;-44
2023/11/17 05:55:03;;;;;;;220.85;51.85;;;;;;;;;;5011502;28;20219;-44
2023/11/17 05:57:29;;;;;;;220.65;51.85;;;;;;;;;;4993560;28;20219;-44
2023/11/17 05:59:57;;;;;;;220.15;51.88;;;;;;;;;;5005160;28;20667;-44
2023/11/17 06:02:23;;;;;;;219.48;51.70;;;;;;;;;;5001803;28;20716;-45
2023/11/17 06:04:49;;;;;;;220.48;51.67;;;;;;;;;;4997060;28;20169;-44
2023/11/17 06:07:16;;;;;;;223.50;55.17;;;;;;;;;;5010949;28;20200;-45
2023/11/17 06:09:43;;;;;;;217.68;51.08;;;;;;;;;;4995278;28;20196;-44
2023/11/17 06:12:15;;;;;;;218.50;51.08;;;;;;;;;;5012513;28;20207;-44
2023/11/17 06:14:41;;;;;;;221.65;52.88;;;;;;;;;;5001067;28;20263;-44
2023/11/17 06:17:08;;;;;;;219.30;51.28;;;;;;;;;;5004532;28;20207;-44
2023/11/17 06:19:36;;;;;;;218.27;50.78;;;;;;;;;;5008569;28;20173;-45
2023/11/17 06:22:02;;;;;;;218.85;51.58;;;;;;;;;;4999372;28;20195;-45
2023/11/17 06:24:28;;;;;;;217.57;50.83;;;;;;;;;;5014638;28;20169;-44
2023/11/17 06:26:54;;;;;;;219.75;51.28;;;;;;;;;;4996139;28;20255;-44
2023/11/17 06:29:22;;;;;;;218.90;51.28;;;;;;;;;;5008550;28;20219;-44
2023/11/17 06:31:48;;;;;;;219.23;51.45;;;;;;;;;;5004580;28;20252;-45
2023/11/17 06:34:14;;;;;;;217.65;50.88;;;;;;;;;;5000779;28;20176;-44
2023/11/17 06:36:41;;;;;;;221.25;53.13;;;;;;;;;;5011859;28;20192;-45
2023/11/17 06:39:23;;;;;;;220.00;52.35;;;;;;;;;;4994704;28;20276;-44
2023/11/17 06:41:51;;;;;;;219.25;51.50;;;;;;;;;;4994844;28;20281;-44
2023/11/17 06:44:20;;;;;;;217.35;50.60;;;;;;;;;;5010661;28;20267;-44
2023/11/17 06:46:46;;;;;;;217.25;51.10;;;;;;;;;;5001276;28;20275;-44
2023/11/17 06:49:14;;;;;;;217.77;50.80;;;;;;;;;;5002707;28;20184;-44
2023/11/17 06:51:40;;;;;;;217.98;50.92;;;;;;;;;;5009305;28;20540;-44
2023/11/17 06:54:10;;;;;;;218.73;51.08;;;;;;;;;;4994973;28;20184;-44
2023/11/17 06:56:40;;;;;;;213.95;49.72;;;;;;;;;;5013759;28;20196;-44
2023/11/17 06:59:07;;;;;;;218.73;50.83;;;;;;;;;;4996452;28;20184;-44
2023/11/17 07:01:35;;;;;;;219.25;52.10;;;;;;;;;;5007570;28;20184;-44
2023/11/17 07:04:02;;;;;;;223.07;54.22;;;;;;;;;;5004860;28;20169;-45
2023/11/17 07:06:28;;;;;;;219.00;51.70;;;;;;;;;;4999582;28;20192;-44
2023/11/17 07:08:54;;;;;;;218.82;51.47;;;;;;;;;;5011086;28;20192;-44
2023/11/17 07:11:20;;;;;;;216.87;51.50;;;;;;;;;;4994216;28;20629;-45
2023/11/17 07:13:46;;;;;;;215.93;50.40;;;;;;;;;;5011801;28;20419;-45
2023/11/17 07:16:15;;;;;;;218.88;52.45;;;;;;;;;;4999633;28;20516;-44
2023/11/17 07:18:41;;;;;;;216.30;50.53;;;;;;;;;;5003275;28;20180;-45
2023/11/17 07:21:08;;;;;;;218.05;50.78;;;;;;;;;;5007837;28;20199;-44
2023/11/17 07:23:35;;;;;;;217.43;52.45;;;;;;;;;;5010807;28;20657;-44
2023/11/17 07:26:02;;;;;;;217.82;52.30;;;;;;;;;;5013237;28;20185;-44
2023/11/17 07:28:29;;;;;;;216.60;51.80;;;;;;;;;;4995316;28;20194;-44
2023/11/17 07:30:55;;;;;;;218.95;52.13;;;;;;;;;;5007450;28;20184;-44
2023/11/17 07:33:21;;;;;;;216.63;51.27;;;;;;;;;;5003601;28;20610;-44
2023/11/17 07:35:47;;;;;;;218.03;51.77;;;;;;;;;;4999083;28;20923;-44
2023/11/17 07:38:13;;;;;;;216.97;51.73;;;;;;;;;;5011492;28;20988;-44
2023/11/17 07:40:40;;;;;;;217.90;51.90;;;;;;;;;;4993659;28;20901;-44
2023/11/17 07:43:05;;;;;;;217.65;51.72;;;;;;;;;;5010598;28;20767;-44
2023/11/17 07:45:31;;;;;;;222.63;58.87;;;;;;;;;;4999212;28;20189;-44
2023/11/17 07:47:57;;;;;;;220.75;56.70;;;;;;;;;;5002538;28;20958;-44
2023/11/17 07:50:23;;;;;;;217.40;53.47;;;;;;;;;;5007763;28;20234;-44
2023/11/17 07:52:49;;;;;;;222.03;56.63;;;;;;;;;;4994247;28;20411;-44
2023/11/17 07:55:15;;;;;;;217.33;52.70;;;;;;;;;;5012929;28;20502;-44
2023/11/17 07:57:41;;;;;;;216.63;52.10;;;;;;;;;;4995543;28;20467;-44
2023/11/17 08:00:18;;;;;;;217.15;53.70;;;;;;;;;;5005597;28;20433;-44
2023/11/17 08:02:44;;;;;;;216.60;52.35;;;;;;;;;;5002739;28;20668;-44
2023/11/17 08:05:10;;;;;;;221.20;53.92;;;;;;;;;;4998935;28;20258;-44
2023/11/17 08:07:36;;;;;;;217.90;52.70;;;;;;;;;;5010337;28;20263;-44
2023/11/17 08:10:06;;;;;;;217.70;53.25;;;;;;;;;;4993066;28;20177;-44
2023/11/17 08:12:32;;;;;;;238.27;67.20;;;;;;;;;;5008863;28;20750;-44
2023/11/17 08:14:59;;;;;;;214.45;51.03;;;;;;;;;;5016700;28;20183;-45
2023/11/17 08:17:27;;;;;;;222.73;57.38;;;;;;;;;;5028397;28;20622;-44
2023/11/17 08:19:54;;;;;;;219.77;55.10;;;;;;;;;;5023755;28;20178;-44
2023/11/17 08:22:20;;;;;;;217.25;52.15;;;;;;;;;;5021736;28;20934;-43
2023/11/17 08:24:46;;;;;;;219.47;53.20;;;;;;;;;;5030081;28;20185;-44
2023/11/17 08:27:14;;;;;;;220.07;53.40;;;;;;;;;;5023380;28;20915;-44
2023/11/17 08:29:40;;;;;;;222.27;53.60;;;;;;;;;;5023345;28;20192;-43
2023/11/17 08:32:07;;;;;;;224.00;55.15;;;;;;;;;;5028283;28;20680;-44
2023/11/17 08:34:35;;;;;;;223.63;54.88;;;;;;;;;;5013354;28;20193;-44
2023/11/17 08:37:01;;;;;;;224.25;55.50;;;;;;;;;;5020617;28;20198;-44
2023/11/17 08:39:27;;;;;;;225.87;59.60;;;;;;;;;;5025680;28;20197;-44
2023/11/17 08:41:56;;;;;;;223.07;55.60;;;;;;;;;;5027470;28;20493;-45
2023/11/17 08:44:22;;;;;;;222.20;54.65;;;;;;;;;;5018012;28;20487;-44
2023/11/17 08:46:49;;;;;;;222.57;54.88;;;;;;;;;;5023457;28;20680;-44
2023/11/17 08:49:16;;;;;;;226.65;57.08;;;;;;;;;;5023888;28;20242;-44
2023/11/17 08:51:42;;;;;;;223.55;55.63;;;;;;;;;;5013690;28;20206;-44
2023/11/17 08:54:08;;;;;;;225.10;57.75;;;;;;;;;;5021509;28;20189;-43
2023/11/17 08:56:35;;;;;;;224.60;57.08;;;;;;;;;;5023374;28;20205;-44
2023/11/17 08:59:01;;;;;;;228.95;58.97;;;;;;;;;;5027922;28;20166;-44
2023/11/17 09:01:27;;;;;;;228.10;58.33;;;;;;;;;;5023715;28;20170;-44
2023/11/17 09:03:53;;;;;;;226.32;56.47;;;;;;;;;;5023727;28;20178;-44
2023/11/17 09:06:19;;;;;;;227.10;58.07;;;;;;;;;;5022805;28;20692;-44
2023/11/17 09:08:46;;;;;;;224.87;56.00;;;;;;;;;;5023030;28;20908;-44
2023/11/17 09:11:12;;;;;;;226.63;57.35;;;;;;;;;;5023100;28;20782;-45
2023/11/17 09:13:40;;;;;;;228.50;58.45;;;;;;;;;;5026048;28;20178;-44
2023/11/17 09:16:07;;;;;;;225.73;57.60;;;;;;;;;;5027494;28;20202;-44
2023/11/17 09:18:35;;;;;;;227.07;61.08;;;;;;;;;;5020127;28;20254;-44
2023/11/17 09:21:05;;;;;;;225.50;57.50;;;;;;;;;;5025696;28;20182;-45
2023/11/17 09:23:34;;;;;;;231.88;62.03;;;;;;;;;;5023905;28;20224;-44
2023/11/17 09:26:00;;;;;;;235.90;67.32;;;;;;;;;;5022624;28;20187;-45
2023/11/17 09:28:26;;;;;;;232.47;64.17;;;;;;;;;;5022747;28;20674;-45
2023/11/17 09:30:52;;;;;;;220.33;61.50;;;;;;;;;;5030777;28;20428;-44
2023/11/17 09:33:18;;;;;;;232.53;64.50;;;;;;;;;;5017423;28;20496;-44
2023/11/17 09:35:44;;;;;;;236.20;68.43;;;;;;;;;;5019272;28;20417;-44
2023/11/17 09:38:11;;;;;;;239.60;73.50;;;;;;;;;;5018672;28;20525;-44
2023/11/17 09:40:37;;;;;;;251.73;80.45;;;;;;;;;;5022998;28;20408;-45
2023/11/17 09:43:03;;;;;;;236.02;70.63;;;;;;;;;;5032689;28;20250;-45
2023/11/17 09:45:33;;;;;;;253.27;84.47;;;;;;;;;;5016632;28;20631;-45
2023/11/17 09:48:05;;;;;;;236.48;71.22;;;;;;;;;;5028836;28;20931;-44
2023/11/17 09:50:31;;;;;;;242.05;75.80;;;;;;;;;;5023779;28;20219;-44
2023/11/17 09:52:59;;;;;;;244.98;78.18;;;;;;;;;;5019780;28;20175;-44
2023/11/17 09:55:28;;;;;;;248.30;84.72;;;;;;;;;;5030182;28;20171;-44
2023/11/17 09:58:02;;;;;;;245.30;81.97;;;;;;;;;;5014571;28;20550;-44
2023/11/17 10:00:29;;;;;;;245.85;81.78;;;;;;;;;;4995600;28;20255;-44
2023/11/17 10:03:00;;;;;;;235.45;74.30;;;;;;;;;;5011719;28;20233;-44
2023/11/17 10:05:28;;;;;;;238.95;78.38;;;;;;;;;;5027141;28;20175;-44
2023/11/17 10:07:55;;;;;;;239.23;78.95;;;;;;;;;;5025649;28;20190;-44
2023/11/17 10:10:22;;;;;;;236.38;74.90;;;;;;;;;;5019681;28;20183;-44
2023/11/17 10:12:49;;;;;;;241.27;82.03;;;;;;;;;;5033508;28;20183;-45
2023/11/17 10:15:28;;;;;;;238.60;79.03;;;;;;;;;;5014726;28;20590;-44
2023/11/17 10:18:01;;;;;;;234.68;75.10;;;;;;;;;;5033049;28;20217;-45
2023/11/17 10:20:27;;;;;;;231.23;73.28;;;;;;;;;;5019298;28;20218;-44
2023/11/17 10:22:54;;;;;;;229.02;72.25;;;;;;;;;;5025776;28;20171;-44
2023/11/17 10:25:24;;;;;;;230.75;70.00;;;;;;;;;;5026716;28;20182;-44
2023/11/17 10:27:51;;;;;;;227.43;68.20;;;;;;;;;;5017798;28;20217;-44
2023/11/17 10:30:20;;;;;;;228.40;68.70;;;;;;;;;;5034035;28;20188;-44
2023/11/17 10:33:13;;;;;;;223.68;63.15;;;;;;;;;;4994847;28;20175;-45
2023/11/17 10:35:39;;;;;;;231.05;71.22;;;;;;;;;;5006906;28;20200;-44
2023/11/17 10:38:05;;;;;;;224.50;64.55;;;;;;;;;;5029303;28;20687;-44
2023/11/17 10:40:32;;;;;;;224.97;65.87;;;;;;;;;;5022461;28;20219;-44
2023/11/17 10:43:04;;;;;;;224.63;65.07;;;;;;;;;;5021811;28;20415;-44
2023/11/17 10:45:30;;;;;;;231.98;72.95;;;;;;;;;;5029156;28;20179;-44
2023/11/17 10:47:56;;;;;;;223.57;63.50;;;;;;;;;;5013981;28;20166;-44
2023/11/17 10:50:22;;;;;;;224.57;65.30;;;;;;;;;;5014366;28;20493;-44
2023/11/17 10:52:48;;;;;;;225.38;66.57;;;;;;;;;;5013299;28;20407;-44
2023/11/17 10:55:14;;;;;;;224.03;64.27;;;;;;;;;;5002004;28;20184;-44
2023/11/17 10:57:41;;;;;;;227.73;68.43;;;;;;;;;;5001760;28;20462;-44
2023/11/17 11:00:17;;;;;;;227.40;70.65;;;;;;;;;;4992366;28;20662;-44
2023/11/17 11:02:44;;;;;;;226.63;67.93;;;;;;;;;;4995411;28;20256;-44
2023/11/17 11:05:10;;;;;;;225.00;65.90;;;;;;;;;;5012718;28;20586;-44
2023/11/17 11:07:45;;;;;;;227.80;68.53;;;;;;;;;;4996443;28;20229;-44
2023/11/17 11:10:15;;;;;;;228.40;69.38;;;;;;;;;;5008147;28;20190;-45
2023/11/17 11:12:41;;;;;;;225.80;66.72;;;;;;;;;;5008379;28;20174;-45
2023/11/17 11:15:14;;;;;;;232.88;76.68;;;;;;;;;;5013092;28;20678;-45
2023/11/17 11:17:52;;;;;;;228.63;71.07;;;;;;;;;;5009465;28;20326;-44
2023/11/17 11:20:21;;;;;;;226.90;66.70;;;;;;;;;;4995011;28;20169;-44
2023/11/17 11:22:47;;;;;;;226.52;65.90;;;;;;;;;;5013365;28;20167;-44
2023/11/17 11:25:15;;;;;;;229.00;71.25;;;;;;;;;;5012842;28;20170;-44
2023/11/17 11:27:41;;;;;;;228.68;71.15;;;;;;;;;;4999545;28;20611;-44
2023/11/17 11:30:08;;;;;;;230.10;71.72;;;;;;;;;;5002864;28;20243;-45
2023/11/17 11:32:35;;;;;;;231.73;72.97;;;;;;;;;;5007603;28;20189;-44
2023/11/17 11:35:01;;;;;;;228.35;69.30;;;;;;;;;;4994987;28;20169;-44
2023/11/17 11:37:32;;;;;;;228.40;70.38;;;;;;;;;;5012891;28;20583;-44
2023/11/17 11:39:58;;;;;;;226.82;67.72;;;;;;;;;;4995160;28;20169;-45
2023/11/17 11:42:24;;;;;;;227.55;72.35;;;;;;;;;;5007261;28;20759;-44
2023/11/17 11:44:51;;;;;;;228.37;72.20;;;;;;;;;;5002923;28;20212;-44
2023/11/17 11:47:18;;;;;;;225.13;68.78;;;;;;;;;;4998808;28;20432;-44
2023/11/17 11:49:44;;;;;;;229.45;73.93;;;;;;;;;;5010914;28;20168;-44
2023/11/17 11:52:15;;;;;;;225.70;66.95;;;;;;;;;;4993585;28;20181;-44
2023/11/17 11:54:41;;;;;;;225.73;69.20;;;;;;;;;;5011330;28;20259;-44
2023/11/17 11:57:34;;;;;;;224.25;65.45;;;;;;;;;;4998223;28;20208;-45
2023/11/17 12:00:12;;;;;;;230.48;69.50;;;;;;;;;;5004016;28;20321;-44
2023/11/17 12:02:51;;;;;;;224.88;66.25;;;;;;;;;;5000740;28;20176;-45
2023/11/17 12:05:23;;;;;;;227.25;70.93;;;;;;;;;;5001152;28;20173;-45
2023/11/17 12:07:50;;;;;;;228.48;71.00;;;;;;;;;;5006491;28;20226;-44
2023/11/17 12:10:18;;;;;;;229.65;72.30;;;;;;;;;;4994896;28;20700;-44
2023/11/17 12:12:47;;;;;;;223.23;66.15;;;;;;;;;;5012674;28;20177;-45
2023/11/17 12:15:13;;;;;;;228.38;70.00;;;;;;;;;;4994265;28;20189;-45
2023/11/17 12:17:43;;;;;;;223.48;65.38;;;;;;;;;;5006425;28;20227;-45
2023/11/17 12:20:18;;;;;;;224.25;66.57;;;;;;;;;;5001872;28;20178;-45
2023/11/17 12:23:00;;;;;;;224.70;66.00;;;;;;;;;;5003125;28;20271;-44
2023/11/17 12:25:29;;;;;;;222.55;67.13;;;;;;;;;;5006168;28;20172;-44
2023/11/17 12:27:58;;;;;;;237.75;79.35;;;;;;;;;;4993363;28;20616;-44
2023/11/17 12:30:28;;;;;;;222.52;64.70;;;;;;;;;;5007356;28;20196;-44
2023/11/17 12:32:55;;;;;;;227.73;70.32;;;;;;;;;;5011407;28;20184;-44
2023/11/17 12:35:22;;;;;;;227.50;67.30;;;;;;;;;;4995892;28;20177;-44
2023/11/17 12:37:51;;;;;;;228.75;71.47;;;;;;;;;;5002951;28;20311;-44
2023/11/17 12:40:20;;;;;;;229.68;70.82;;;;;;;;;;5006232;28;20183;-45
2023/11/17 12:42:47;;;;;;;226.70;69.32;;;;;;;;;;5009059;28;20181;-44
2023/11/17 12:45:13;;;;;;;229.95;69.75;;;;;;;;;;5011693;28;20218;-44
2023/11/17 12:47:44;;;;;;;228.10;68.45;;;;;;;;;;4992101;28;20189;-44
2023/11/17 12:50:10;;;;;;;227.15;67.07;;;;;;;;;;5008481;28;20236;-44
2023/11/17 12:52:37;;;;;;;226.43;66.60;;;;;;;;;;4999761;28;20525;-44
2023/11/17 12:55:07;;;;;;;227.63;69.72;;;;;;;;;;5000408;28;20587;-44
2023/11/17 12:57:36;;;;;;;228.18;69.18;;;;;;;;;;5006779;28;20225;-44
2023/11/17 13:00:13;;;;;;;232.60;74.03;;;;;;;;;;4993047;28;20181;-44
2023/11/17 13:02:43;;;;;;;229.75;70.00;;;;;;;;;;5012006;28;20168;-44
2023/11/17 13:05:14;;;;;;;231.35;72.78;;;;;;;;;;4992853;28;20182;-44
2023/11/17 13:07:40;;;;;;;231.93;74.07;;;;;;;;;;5007124;28;20188;-44
2023/11/17 13:10:10;;;;;;;225.70;67.78;;;;;;;;;;5001181;28;20184;-44
2023/11/17 13:12:36;;;;;;;232.90;74.10;;;;;;;;;;4999966;28;20175;-44
2023/11/17 13:15:05;;;;;;;231.30;73.40;;;;;;;;;;5007786;28;20177;-45
2023/11/17 13:17:34;;;;;;;231.15;73.45;;;;;;;;;;4995727;28;20464;-45
2023/11/17 13:20:00;;;;;;;231.88;73.45;;;;;;;;;;5015718;28;20194;-44
2023/11/17 13:22:29;;;;;;;230.00;72.60;;;;;;;;;;5007631;28;20168;-45
2023/11/17 13:25:03;;;;;;;233.55;75.97;;;;;;;;;;5014890;28;20405;-45
2023/11/17 13:27:29;;;;;;;235.30;77.60;;;;;;;;;;5005668;28;20191;-45
2023/11/17 13:29:55;;;;;;;237.95;80.43;;;;;;;;;;5001277;28;20194;-45
2023/11/17 13:32:22;;;;;;;239.97;80.80;;;;;;;;;;5013056;28;20279;-45
2023/11/17 13:34:55;;;;;;;242.90;85.40;;;;;;;;;;4995893;28;20411;-45
2023/11/17 13:37:21;;;;;;;245.80;90.40;;;;;;;;;;5012655;28;21036;-45
2023/11/17 13:39:48;;;;;;;247.13;88.23;;;;;;;;;;4999331;28;20417;-45
2023/11/17 13:42:15;;;;;;;246.77;88.47;;;;;;;;;;5004475;28;20417;-45
2023/11/17 13:44:44;;;;;;;242.77;84.90;;;;;;;;;;5008777;28;20416;-45
2023/11/17 13:47:12;;;;;;;243.47;84.87;;;;;;;;;;4996579;28;20512;-45
2023/11/17 13:49:39;;;;;;;247.67;92.43;;;;;;;;;;5015369;28;20405;-45
2023/11/17 13:52:09;;;;;;;245.30;90.83;;;;;;;;;;4996026;28;20419;-45
2023/11/17 13:54:35;;;;;;;245.07;91.87;;;;;;;;;;5010847;28;20414;-45
2023/11/17 13:57:02;;;;;;;243.03;85.67;;;;;;;;;;5003485;28;21008;-45
2023/11/17 13:59:28;;;;;;;245.37;89.07;;;;;;;;;;5002535;28;20411;-45
2023/11/17 14:01:56;;;;;;;242.47;84.13;;;;;;;;;;5011749;28;20462;-45
2023/11/17 14:04:28;;;;;;;239.23;78.60;;;;;;;;;;4995226;28;20412;-45
2023/11/17 14:06:57;;;;;;;238.30;77.50;;;;;;;;;;4995156;28;20436;-45